Time;durP1;ratioP1;P1;durP2;ratioP2;P2;SDS_P1;SDS_P2;PMS_P1;PMS_P2;Temp;Humidity;BMP_temperature;BMP_pressure;BME280_temperature;BME280_humidity;BME280_pressure;Samples;Min_cycle;Max_cycle;Signal;HPM_P1;HPM_P2
2021/06/28 00:01:12;;;;;;;11.77;4.88;;;;;;;;;;8292961;28;20479;-71
2021/06/28 00:05:20;;;;;;;5.05;4.15;;;;;;;;;;8291750;28;20084;-73
2021/06/28 00:09:25;;;;;;;9.90;5.40;;;;;;;;;;8293513;28;20371;-72
2021/06/28 00:13:30;;;;;;;9.30;4.47;;;;;;;;;;8276220;28;20479;-72
2021/06/28 00:17:36;;;;;;;6.45;3.80;;;;;;;;;;8291976;28;20368;-73
2021/06/28 00:21:41;;;;;;;5.15;3.97;;;;;;;;;;8293371;28;20456;-71
2021/06/28 00:25:47;;;;;;;9.63;4.07;;;;;;;;;;8276573;28;20378;-72
2021/06/28 00:29:52;;;;;;;6.85;4.28;;;;;;;;;;8273551;28;20475;-71
2021/06/28 00:33:59;;;;;;;6.15;3.88;;;;;;;;;;8275427;28;20378;-71
2021/06/28 00:38:06;;;;;;;5.38;4.25;;;;;;;;;;8291643;28;20415;-73
2021/06/28 00:42:11;;;;;;;5.10;4.20;;;;;;;;;;8290991;28;20075;-71
2021/06/28 00:46:15;;;;;;;8.88;4.20;;;;;;;;;;8292164;28;20384;-72
2021/06/28 00:50:24;;;;;;;8.65;4.72;;;;;;;;;;8272394;28;20367;-71
2021/06/28 00:54:29;;;;;;;5.22;4.10;;;;;;;;;;8274299;28;20061;-72
2021/06/28 00:58:35;;;;;;;5.43;4.32;;;;;;;;;;8290995;28;20460;-72
2021/06/28 01:02:41;;;;;;;12.77;4.38;;;;;;;;;;8289805;28;20464;-72
2021/06/28 01:06:46;;;;;;;5.32;3.72;;;;;;;;;;8273672;28;20420;-72
2021/06/28 01:10:51;;;;;;;7.35;3.88;;;;;;;;;;8290896;28;20045;-71
2021/06/28 01:15:02;;;;;;;12.85;4.13;;;;;;;;;;8291448;28;20402;-72
2021/06/28 01:19:10;;;;;;;4.93;3.75;;;;;;;;;;8289404;28;20403;-71
2021/06/28 01:23:30;;;;;;;11.10;4.30;;;;;;;;;;8257358;28;20472;-71
2021/06/28 01:27:36;;;;;;;7.75;4.07;;;;;;;;;;8289637;28;20078;-72
2021/06/28 01:31:41;;;;;;;5.22;4.55;;;;;;;;;;8290080;28;20360;-71
2021/06/28 01:35:48;;;;;;;6.85;5.10;;;;;;;;;;8290134;28;20041;-71
2021/06/28 01:40:00;;;;;;;6.10;4.80;;;;;;;;;;8274279;28;20554;-71
2021/06/28 01:44:06;;;;;;;10.43;5.18;;;;;;;;;;8273475;28;20353;-71
2021/06/28 01:48:12;;;;;;;6.55;4.47;;;;;;;;;;8292570;28;20360;-71
2021/06/28 01:52:18;;;;;;;8.73;4.45;;;;;;;;;;8291633;28;20371;-71
2021/06/28 01:56:23;;;;;;;6.00;4.25;;;;;;;;;;8273197;28;20060;-71
2021/06/28 02:00:34;;;;;;;9.07;4.93;;;;;;;;;;8289301;28;20383;-72
2021/06/28 02:04:38;;;;;;;9.40;5.20;;;;;;;;;;8295857;28;20367;-72
2021/06/28 02:08:43;;;;;;;7.30;4.10;;;;;;;;;;8296178;28;20103;-72
2021/06/28 02:12:48;;;;;;;9.10;4.50;;;;;;;;;;8295265;28;20492;-72
2021/06/28 02:16:54;;;;;;;8.63;3.78;;;;;;;;;;8277571;28;20075;-71
2021/06/28 02:21:01;;;;;;;5.07;3.80;;;;;;;;;;8296364;28;20375;-71
2021/06/28 02:25:09;;;;;;;5.70;4.30;;;;;;;;;;8277731;28;20048;-71
2021/06/28 02:29:15;;;;;;;6.15;4.30;;;;;;;;;;8296633;28;20467;-72
2021/06/28 02:33:20;;;;;;;7.43;4.10;;;;;;;;;;8295751;28;20060;-71
2021/06/28 02:37:26;;;;;;;6.57;3.85;;;;;;;;;;8280421;28;20372;-72
2021/06/28 02:41:31;;;;;;;6.80;3.90;;;;;;;;;;8295000;28;20379;-71
2021/06/28 02:45:56;;;;;;;6.38;3.72;;;;;;;;;;8227379;28;20474;-72
2021/06/28 02:50:09;;;;;;;9.40;4.50;;;;;;;;;;8278535;28;20395;-72
2021/06/28 02:54:14;;;;;;;9.00;4.05;;;;;;;;;;8294485;28;20455;-71
2021/06/28 02:58:21;;;;;;;10.05;5.22;;;;;;;;;;8295082;28;20478;-72
2021/06/28 03:02:27;;;;;;;6.28;3.88;;;;;;;;;;8294087;28;20478;-71
2021/06/28 03:06:42;;;;;;;15.98;4.95;;;;;;;;;;8419606;27;20910;-71
2021/06/28 03:11:01;;;;;;;5.55;4.25;;;;;;;;;;8378110;27;1248365;-71
2021/06/28 03:15:20;;;;;;;10.73;4.63;;;;;;;;;;8419838;27;20845;-70
2021/06/28 03:19:37;;;;;;;9.85;4.38;;;;;;;;;;8419296;27;21055;-71
2021/06/28 03:23:53;;;;;;;5.50;4.30;;;;;;;;;;8420602;27;20548;-71
2021/06/28 03:28:11;;;;;;;5.82;3.72;;;;;;;;;;8421975;27;20856;-72
2021/06/28 03:32:28;;;;;;;5.95;4.40;;;;;;;;;;8420549;27;20895;-70
2021/06/28 03:36:44;;;;;;;7.22;4.32;;;;;;;;;;8421290;27;21056;-70
2021/06/28 03:41:00;;;;;;;14.73;4.65;;;;;;;;;;8419679;27;21027;-70
2021/06/28 03:45:16;;;;;;;8.55;4.97;;;;;;;;;;8419599;27;20829;-70
2021/06/28 03:49:33;;;;;;;6.78;4.78;;;;;;;;;;8420407;27;20878;-71
2021/06/28 03:53:51;;;;;;;10.52;5.38;;;;;;;;;;8420389;27;21139;-70
2021/06/28 03:58:08;;;;;;;8.32;4.65;;;;;;;;;;8420846;27;21032;-71
2021/06/28 04:02:24;;;;;;;5.60;4.88;;;;;;;;;;8419486;27;20898;-70
2021/06/28 04:06:40;;;;;;;10.75;4.93;;;;;;;;;;8378468;27;1257000;-70
2021/06/28 04:10:56;;;;;;;8.68;4.63;;;;;;;;;;8418858;27;21062;-70
2021/06/28 04:15:12;;;;;;;5.93;4.82;;;;;;;;;;8387217;27;20992;-70
2021/06/28 04:19:27;;;;;;;5.90;4.75;;;;;;;;;;8419791;27;21112;-70
2021/06/28 04:23:42;;;;;;;9.65;5.55;;;;;;;;;;8419712;27;21123;-70
2021/06/28 04:27:58;;;;;;;5.22;4.55;;;;;;;;;;8419267;27;21131;-70
2021/06/28 04:32:29;;;;;;;7.80;4.55;;;;;;;;;;8419391;27;20875;-70
2021/06/28 04:36:46;;;;;;;6.97;5.05;;;;;;;;;;8419362;27;20621;-70
2021/06/28 04:41:02;;;;;;;6.65;4.65;;;;;;;;;;8386556;27;21203;-69
2021/06/28 04:45:20;;;;;;;5.55;4.90;;;;;;;;;;8386531;27;20962;-70
2021/06/28 04:49:33;;;;;;;10.55;5.05;;;;;;;;;;8377698;27;1253668;-70
2021/06/28 04:53:49;;;;;;;5.85;4.80;;;;;;;;;;8419557;27;20837;-71
2021/06/28 04:58:03;;;;;;;8.57;5.68;;;;;;;;;;8377880;27;1256055;-71
2021/06/28 05:02:18;;;;;;;5.28;4.25;;;;;;;;;;8375170;27;1358725;-71
2021/06/28 05:06:34;;;;;;;6.15;4.30;;;;;;;;;;8420268;27;20837;-70
2021/06/28 05:10:48;;;;;;;4.72;4.18;;;;;;;;;;8377265;27;1284378;-69
2021/06/28 05:15:03;;;;;;;6.38;4.10;;;;;;;;;;8377742;27;1267291;-71
2021/06/28 05:19:20;;;;;;;6.80;4.47;;;;;;;;;;8419415;27;20902;-69
2021/06/28 05:23:35;;;;;;;19.33;5.68;;;;;;;;;;8421046;27;20565;-71
2021/06/28 05:27:51;;;;;;;7.68;4.45;;;;;;;;;;8419887;27;20937;-70
2021/06/28 05:32:09;;;;;;;8.93;4.18;;;;;;;;;;8419709;27;20902;-70
2021/06/28 05:36:26;;;;;;;7.20;3.90;;;;;;;;;;8420270;27;20853;-71
2021/06/28 05:40:42;;;;;;;6.60;3.90;;;;;;;;;;8421518;27;20584;-71
2021/06/28 05:44:58;;;;;;;7.35;3.90;;;;;;;;;;8420270;27;20901;-70
2021/06/28 05:49:13;;;;;;;9.82;3.88;;;;;;;;;;8420181;27;21027;-71
2021/06/28 05:53:29;;;;;;;7.75;4.00;;;;;;;;;;8419603;27;20893;-70
2021/06/28 05:57:45;;;;;;;4.35;3.70;;;;;;;;;;8453253;27;20832;-70
2021/06/28 06:01:59;;;;;;;4.22;3.50;;;;;;;;;;8379013;27;1249295;-71
2021/06/28 06:06:15;;;;;;;5.90;3.63;;;;;;;;;;8419502;27;21039;-71
2021/06/28 06:10:31;;;;;;;4.32;3.20;;;;;;;;;;8420381;27;21059;-72
2021/06/28 06:14:45;;;;;;;4.45;3.08;;;;;;;;;;8376002;27;1273835;-72
2021/06/28 06:19:01;;;;;;;4.80;2.90;;;;;;;;;;8419648;27;21051;-71
2021/06/28 06:23:17;;;;;;;5.75;2.97;;;;;;;;;;8421640;27;20833;-72
2021/06/28 06:27:32;;;;;;;6.13;3.00;;;;;;;;;;8386229;27;21138;-71
2021/06/28 06:31:48;;;;;;;4.80;2.60;;;;;;;;;;8420380;27;20840;-72
2021/06/28 06:36:05;;;;;;;3.85;2.42;;;;;;;;;;8419296;27;20852;-73
2021/06/28 06:40:24;;;;;;;4.55;2.30;;;;;;;;;;8419246;27;20829;-72
2021/06/28 06:44:38;;;;;;;4.63;1.95;;;;;;;;;;8377849;27;1251984;-72
2021/06/28 06:48:54;;;;;;;3.35;1.77;;;;;;;;;;8385571;27;20931;-71
2021/06/28 06:53:11;;;;;;;5.30;2.05;;;;;;;;;;8418524;27;20846;-72
2021/06/28 06:57:26;;;;;;;2.72;2.35;;;;;;;;;;8419257;27;21128;-71
2021/06/28 07:01:42;;;;;;;4.60;2.47;;;;;;;;;;8376852;27;1269595;-69
2021/06/28 07:05:58;;;;;;;6.03;3.08;;;;;;;;;;8419061;27;21063;-71
2021/06/28 07:10:17;;;;;;;5.28;2.63;;;;;;;;;;8419265;27;21067;-71
2021/06/28 07:14:31;;;;;;;4.63;2.88;;;;;;;;;;8378741;27;1256877;-71
2021/06/28 07:18:46;;;;;;;8.02;4.40;;;;;;;;;;8380004;27;1248652;-71
2021/06/28 07:23:27;;;;;;;10.97;4.10;;;;;;;;;;8376426;27;1268869;-71
2021/06/28 07:27:44;;;;;;;6.32;3.88;;;;;;;;;;8419315;27;20841;-71
2021/06/28 07:32:00;;;;;;;5.20;3.65;;;;;;;;;;8420041;27;20886;-72
2021/06/28 07:36:18;;;;;;;6.32;3.63;;;;;;;;;;8419521;27;20864;-72
2021/06/28 07:40:33;;;;;;;6.32;3.67;;;;;;;;;;8377139;27;1271451;-72
2021/06/28 07:44:51;;;;;;;6.80;4.20;;;;;;;;;;8420393;27;20860;-71
2021/06/28 07:49:06;;;;;;;5.53;2.80;;;;;;;;;;8377582;27;1242354;-72
2021/06/28 07:53:23;;;;;;;4.28;2.80;;;;;;;;;;8421020;27;20901;-71
2021/06/28 07:57:52;;;;;;;4.00;2.45;;;;;;;;;;8420040;27;20921;-72
2021/06/28 08:02:08;;;;;;;5.90;2.78;;;;;;;;;;8418825;27;21062;-71
2021/06/28 08:06:25;;;;;;;4.05;2.40;;;;;;;;;;8421736;27;21031;-72
2021/06/28 08:10:41;;;;;;;5.32;2.78;;;;;;;;;;8418473;27;20840;-72
2021/06/28 08:14:56;;;;;;;7.18;2.78;;;;;;;;;;8374966;27;1252580;-72
2021/06/28 08:19:13;;;;;;;8.13;3.00;;;;;;;;;;8418720;27;20871;-70
2021/06/28 08:23:29;;;;;;;5.90;2.85;;;;;;;;;;8385649;27;20968;-71
2021/06/28 08:27:45;;;;;;;4.45;2.90;;;;;;;;;;8317610;27;21160;-72
2021/06/28 08:32:04;;;;;;;3.50;2.47;;;;;;;;;;8420806;27;21051;-71
2021/06/28 08:36:18;;;;;;;3.03;2.20;;;;;;;;;;8378937;27;1263281;-71
2021/06/28 08:40:39;;;;;;;8.02;3.10;;;;;;;;;;8420127;27;21039;-70
2021/06/28 08:44:56;;;;;;;11.00;2.63;;;;;;;;;;8421645;27;20634;-72
2021/06/28 08:49:13;;;;;;;8.13;3.00;;;;;;;;;;8418905;27;20867;-70
2021/06/28 08:53:31;;;;;;;7.10;2.15;;;;;;;;;;8418737;27;20868;-69
2021/06/28 08:57:46;;;;;;;12.35;2.47;;;;;;;;;;8420208;27;21087;-71
2021/06/28 09:02:02;;;;;;;4.00;2.40;;;;;;;;;;8420575;27;20553;-70
2021/06/28 09:06:28;;;;;;;10.48;2.80;;;;;;;;;;8420789;27;21047;-69
2021/06/28 09:10:46;;;;;;;4.25;1.98;;;;;;;;;;8419345;27;20553;-69
2021/06/28 09:15:01;;;;;;;3.03;2.30;;;;;;;;;;8377680;27;1261152;-69
2021/06/28 09:19:21;;;;;;;5.25;2.22;;;;;;;;;;8385822;27;20555;-70
2021/06/28 09:23:42;;;;;;;12.88;3.80;;;;;;;;;;8419254;27;21379;-72
2021/06/28 09:27:59;;;;;;;3.25;2.00;;;;;;;;;;8419990;27;20894;-70
2021/06/28 09:32:19;;;;;;;7.60;2.55;;;;;;;;;;8421922;27;20841;-72
2021/06/28 09:36:56;;;;;;;7.05;2.55;;;;;;;;;;8377422;27;1252815;-71
2021/06/28 09:41:33;;;;;;;2.47;2.10;;;;;;;;;;8377091;27;1254319;-71
2021/06/28 09:45:55;;;;;;;3.97;2.25;;;;;;;;;;8418324;27;21062;-70
2021/06/28 09:50:23;;;;;;;2.47;1.95;;;;;;;;;;8384208;27;20791;-69
2021/06/28 09:54:55;;;;;;;3.10;1.95;;;;;;;;;;8419026;27;21255;-71
2021/06/28 09:59:36;;;;;;;4.22;2.30;;;;;;;;;;8419306;27;20764;-72
2021/06/28 10:04:05;;;;;;;8.18;2.30;;;;;;;;;;7921883;27;15059868;-72
2021/06/28 10:08:44;;;;;;;8.23;2.60;;;;;;;;;;8416339;27;21046;-71
2021/06/28 10:13:15;;;;;;;12.23;3.03;;;;;;;;;;8419417;27;21070;-71
2021/06/28 10:17:30;;;;;;;2.60;2.10;;;;;;;;;;7528098;27;24068294;-71
2021/06/28 10:22:03;;;;;;;3.45;1.98;;;;;;;;;;8385165;27;21090;-71
2021/06/28 10:26:33;;;;;;;4.00;2.28;;;;;;;;;;8419264;27;21285;-71
2021/06/28 10:31:09;;;;;;;6.22;1.98;;;;;;;;;;8396964;27;21067;-69
2021/06/28 10:35:30;;;;;;;3.78;2.22;;;;;;;;;;7797835;27;18647813;-71
2021/06/28 10:40:11;;;;;;;5.38;2.53;;;;;;;;;;8420590;27;20740;-71
2021/06/28 10:44:45;;;;;;;5.25;2.35;;;;;;;;;;7923034;27;15050350;-71
2021/06/28 10:49:00;;;;;;;4.10;1.80;;;;;;;;;;8257928;27;4677043;-71
2021/06/28 10:53:13;;;;;;;2.65;2.15;;;;;;;;;;8368027;27;1581268;-72
2021/06/28 10:57:42;;;;;;;4.22;2.30;;;;;;;;;;8371417;28;20481;-71
2021/06/28 11:02:09;;;;;;;3.25;2.03;;;;;;;;;;8375607;28;20378;-71
2021/06/28 11:06:34;;;;;;;4.35;2.13;;;;;;;;;;8375157;28;20427;-70
2021/06/28 11:10:58;;;;;;;8.45;1.88;;;;;;;;;;8370737;28;20373;-70
2021/06/28 11:15:23;;;;;;;2.70;2.03;;;;;;;;;;8371884;28;20353;-70
2021/06/28 11:19:50;;;;;;;13.57;2.13;;;;;;;;;;8383760;28;20048;-72
2021/06/28 11:24:31;;;;;;;7.80;1.77;;;;;;;;;;8384485;28;20366;-70
2021/06/28 11:29:02;;;;;;;3.80;1.80;;;;;;;;;;8419432;27;21275;-71
2021/06/28 11:33:53;;;;;;;2.58;2.00;;;;;;;;;;8418998;27;21304;-70
2021/06/28 11:38:18;;;;;;;3.35;2.03;;;;;;;;;;8383918;28;20357;-72
2021/06/28 11:42:34;;;;;;;2.83;1.90;;;;;;;;;;8386208;27;20362;-72
2021/06/28 11:47:08;;;;;;;3.60;2.17;;;;;;;;;;8417091;27;20997;-71
2021/06/28 11:51:37;;;;;;;3.45;2.30;;;;;;;;;;7246413;27;33346775;-71
2021/06/28 11:56:20;;;;;;;2.83;2.10;;;;;;;;;;8418736;27;21201;-71
2021/06/28 12:01:07;;;;;;;2.50;2.00;;;;;;;;;;8419371;27;21231;-72
2021/06/28 12:05:27;;;;;;;11.00;2.30;;;;;;;;;;7923848;27;15051947;-71
2021/06/28 12:10:34;;;;;;;3.03;1.92;;;;;;;;;;7888515;27;15057269;-70
2021/06/28 12:15:29;;;;;;;4.13;2.45;;;;;;;;;;8331152;27;21240;-71
2021/06/28 12:20:07;;;;;;;2.97;2.40;;;;;;;;;;8419107;27;21009;-71
2021/06/28 12:24:37;;;;;;;2.75;2.22;;;;;;;;;;8394813;27;20780;-70
2021/06/28 12:29:49;;;;;;;2.50;2.30;;;;;;;;;;8418634;27;20779;-72
2021/06/28 12:34:06;;;;;;;5.22;2.47;;;;;;;;;;8418840;27;20932;-72
2021/06/28 12:38:22;;;;;;;3.35;2.70;;;;;;;;;;8387041;27;21453;-71
2021/06/28 12:42:41;;;;;;;4.13;2.90;;;;;;;;;;8351347;27;21269;-73
2021/06/28 12:46:57;;;;;;;5.15;2.55;;;;;;;;;;8385589;27;21157;-71
2021/06/28 12:51:20;;;;;;;3.75;2.88;;;;;;;;;;8418306;27;20884;-72
2021/06/28 12:55:34;;;;;;;7.70;2.97;;;;;;;;;;8171899;27;6235593;-70
2021/06/28 12:59:48;;;;;;;7.80;2.75;;;;;;;;;;7795321;27;18677850;-72
2021/06/28 13:03:53;;;;;;;4.90;2.72;;;;;;;;;;8401162;27;20369;-71
2021/06/28 13:08:36;;;;;;;8.13;4.00;;;;;;;;;;8381718;27;21231;-71
2021/06/28 13:13:30;;;;;;;6.05;3.25;;;;;;;;;;8420232;27;21237;-71
2021/06/28 13:18:20;;;;;;;12.02;3.60;;;;;;;;;;7888962;27;15069974;-70
2021/06/28 13:22:54;;;;;;;8.40;3.20;;;;;;;;;;8419308;27;20729;-73
2021/06/28 13:27:33;;;;;;;4.45;2.92;;;;;;;;;;8385225;27;21268;-72
2021/06/28 13:32:11;;;;;;;5.15;3.30;;;;;;;;;;8421276;27;21234;-70
2021/06/28 13:37:32;;;;;;;6.18;3.13;;;;;;;;;;7712246;27;21026463;-71
2021/06/28 13:42:18;;;;;;;12.85;4.18;;;;;;;;;;8419629;27;20776;-71
2021/06/28 13:46:35;;;;;;;5.72;2.90;;;;;;;;;;7793659;27;18745310;-70
2021/06/28 13:51:12;;;;;;;3.45;2.58;;;;;;;;;;8419286;27;20804;-70
2021/06/28 13:55:54;;;;;;;3.55;2.08;;;;;;;;;;8403056;27;21203;-70
2021/06/28 14:00:44;;;;;;;5.70;2.38;;;;;;;;;;8420548;27;21237;-71
2021/06/28 14:05:33;;;;;;;3.10;2.20;;;;;;;;;;8313568;27;21219;-71
2021/06/28 14:09:48;;;;;;;2.30;1.80;;;;;;;;;;7360518;27;30111956;-71
2021/06/28 14:14:34;;;;;;;3.58;2.00;;;;;;;;;;8385985;27;21091;-71
2021/06/28 14:19:08;;;;;;;3.22;2.05;;;;;;;;;;8397120;27;21253;-71
2021/06/28 14:23:36;;;;;;;3.67;2.40;;;;;;;;;;8418595;27;21272;-71
2021/06/28 14:28:04;;;;;;;5.30;2.50;;;;;;;;;;8386615;27;21281;-72
2021/06/28 14:32:19;;;;;;;3.97;2.17;;;;;;;;;;7713085;27;20984728;-71
2021/06/28 14:36:53;;;;;;;3.13;2.08;;;;;;;;;;8419024;27;21239;-70
2021/06/28 14:41:26;;;;;;;3.05;2.15;;;;;;;;;;8418946;27;20871;-71
2021/06/28 14:45:56;;;;;;;7.30;2.55;;;;;;;;;;8355720;27;24791;-71
2021/06/28 14:50:29;;;;;;;6.05;2.83;;;;;;;;;;8418786;27;21087;-72
2021/06/28 14:54:42;;;;;;;4.72;2.60;;;;;;;;;;7787961;27;18936643;-71
2021/06/28 14:59:15;;;;;;;3.35;2.42;;;;;;;;;;8420869;27;21058;-71
2021/06/28 15:03:49;;;;;;;4.00;2.67;;;;;;;;;;8419281;27;21242;-70
2021/06/28 15:08:04;;;;;;;7.57;2.03;;;;;;;;;;7921998;27;15051751;-71
2021/06/28 15:12:19;;;;;;;4.55;2.17;;;;;;;;;;7790222;27;18840992;-70
2021/06/28 15:16:52;;;;;;;3.88;1.65;;;;;;;;;;8418787;27;21017;-70
2021/06/28 15:21:34;;;;;;;3.88;2.05;;;;;;;;;;8381556;27;20771;-72
2021/06/28 15:25:48;;;;;;;2.80;1.90;;;;;;;;;;7923177;27;15052758;-71
2021/06/28 15:30:36;;;;;;;4.97;3.42;;;;;;;;;;8314046;27;20794;-71
2021/06/28 15:35:25;;;;;;;12.43;9.40;;;;;;;;;;8419236;27;21281;-71
2021/06/28 15:39:41;;;;;;;3.80;2.95;;;;;;;;;;7756154;27;17931676;-71
2021/06/28 15:44:30;;;;;;;2.67;1.90;;;;;;;;;;8418827;27;20767;-71
2021/06/28 15:48:44;;;;;;;3.88;2.10;;;;;;;;;;7792535;27;18754276;-71
2021/06/28 15:52:59;;;;;;;5.10;2.03;;;;;;;;;;7453466;27;26977598;-71
2021/06/28 15:57:32;;;;;;;1.73;1.50;;;;;;;;;;8418611;27;21137;-71
2021/06/28 16:02:06;;;;;;;2.53;2.10;;;;;;;;;;8421194;27;21399;-71
2021/06/28 16:06:42;;;;;;;3.28;2.03;;;;;;;;;;8421351;27;21096;-71
2021/06/28 16:11:18;;;;;;;2.55;1.73;;;;;;;;;;8418645;27;21082;-71
2021/06/28 16:15:56;;;;;;;2.38;1.58;;;;;;;;;;8421355;27;20752;-71
2021/06/28 16:20:14;;;;;;;2.20;1.80;;;;;;;;;;7786845;27;18919899;-71
2021/06/28 16:24:30;;;;;;;2.47;1.92;;;;;;;;;;7891132;27;15055645;-71
2021/06/28 16:29:07;;;;;;;2.17;1.67;;;;;;;;;;8418956;27;20721;-71
2021/06/28 16:33:42;;;;;;;2.20;1.77;;;;;;;;;;8415619;27;21239;-71
2021/06/28 16:37:57;;;;;;;4.10;2.00;;;;;;;;;;7778545;27;17921486;-71
2021/06/28 16:42:43;;;;;;;4.45;2.05;;;;;;;;;;8419592;27;21125;-71
2021/06/28 16:47:14;;;;;;;3.35;2.20;;;;;;;;;;8418884;27;21260;-70
2021/06/28 16:51:28;;;;;;;2.72;1.85;;;;;;;;;;7794637;27;18702268;-71
2021/06/28 16:55:42;;;;;;;2.42;1.83;;;;;;;;;;7822805;27;17878192;-72
2021/06/28 16:59:56;;;;;;;8.10;3.83;;;;;;;;;;7823822;27;17833747;-72
2021/06/28 17:04:29;;;;;;;6.40;2.80;;;;;;;;;;8396004;27;21051;-71
2021/06/28 17:09:00;;;;;;;13.95;6.20;;;;;;;;;;8420784;27;21024;-70
2021/06/28 17:13:30;;;;;;;7.53;3.38;;;;;;;;;;8396745;27;21280;-71
2021/06/28 17:18:15;;;;;;;7.07;4.35;;;;;;;;;;8385403;27;21424;-71
2021/06/28 17:22:30;;;;;;;3.13;2.08;;;;;;;;;;7676855;27;21069250;-70
2021/06/28 17:27:09;;;;;;;6.18;3.00;;;;;;;;;;8418281;27;21243;-71
2021/06/28 17:31:43;;;;;;;7.43;3.40;;;;;;;;;;8397341;27;21173;-71
2021/06/28 17:36:15;;;;;;;4.07;2.42;;;;;;;;;;8418848;27;21017;-71
2021/06/28 17:40:30;;;;;;;4.03;2.30;;;;;;;;;;7783039;27;17804113;-71
2021/06/28 17:44:44;;;;;;;5.85;3.75;;;;;;;;;;7889113;27;15055125;-71
2021/06/28 17:49:26;;;;;;;5.40;3.05;;;;;;;;;;8382020;27;21312;-70
2021/06/28 17:54:00;;;;;;;12.48;5.20;;;;;;;;;;8397466;27;20732;-71
2021/06/28 17:58:14;;;;;;;7.72;3.60;;;;;;;;;;7705050;27;21025045;-71
2021/06/28 18:02:31;;;;;;;4.53;2.55;;;;;;;;;;8418925;27;21127;-71
2021/06/28 18:06:46;;;;;;;4.35;2.70;;;;;;;;;;8419390;27;20872;-71
2021/06/28 18:11:02;;;;;;;7.30;2.95;;;;;;;;;;8418751;27;20913;-70
2021/06/28 18:15:18;;;;;;;10.52;2.70;;;;;;;;;;8418945;27;20849;-71
2021/06/28 18:19:34;;;;;;;8.77;2.90;;;;;;;;;;8376598;27;1249422;-70
2021/06/28 18:23:48;;;;;;;9.10;3.17;;;;;;;;;;7921857;27;15057056;-70
2021/06/28 18:28:02;;;;;;;5.20;2.88;;;;;;;;;;7802964;27;18048034;-70
2021/06/28 18:32:36;;;;;;;4.25;2.85;;;;;;;;;;8419227;27;21092;-70
2021/06/28 18:36:57;;;;;;;6.90;3.35;;;;;;;;;;7923415;27;15049121;-70
2021/06/28 18:41:30;;;;;;;4.97;2.53;;;;;;;;;;8419722;27;21106;-73
2021/06/28 18:46:06;;;;;;;8.20;2.70;;;;;;;;;;8419765;27;21284;-71
2021/06/28 18:50:38;;;;;;;19.17;5.55;;;;;;;;;;8418895;27;21412;-71
2021/06/28 18:55:43;;;;;;;8.82;4.10;;;;;;;;;;8421085;27;24994;-70
2021/06/28 19:00:23;;;;;;;3.83;3.20;;;;;;;;;;8384991;27;21052;-70
2021/06/28 19:04:53;;;;;;;5.03;3.22;;;;;;;;;;8419508;27;21050;-70
2021/06/28 19:09:32;;;;;;;4.30;3.25;;;;;;;;;;8419315;27;20793;-70
2021/06/28 19:13:48;;;;;;;6.85;3.65;;;;;;;;;;7445673;27;27232440;-70
2021/06/28 19:18:19;;;;;;;7.15;3.75;;;;;;;;;;8419758;27;20764;-70
2021/06/28 19:22:55;;;;;;;8.13;3.70;;;;;;;;;;8418307;27;21295;-71
2021/06/28 19:27:31;;;;;;;6.40;4.18;;;;;;;;;;8416662;27;20771;-70
2021/06/28 19:31:47;;;;;;;11.10;5.90;;;;;;;;;;7987512;27;15058366;-70
2021/06/28 19:36:03;;;;;;;15.60;5.95;;;;;;;;;;7793810;27;18738128;-70
2021/06/28 19:40:37;;;;;;;7.88;4.18;;;;;;;;;;8418548;27;21056;-71
2021/06/28 19:45:26;;;;;;;6.38;3.95;;;;;;;;;;8420963;27;21017;-70
2021/06/28 19:49:58;;;;;;;10.35;4.80;;;;;;;;;;8419019;27;21043;-71
2021/06/28 19:54:32;;;;;;;11.88;4.65;;;;;;;;;;8418626;27;21328;-70
2021/06/28 19:59:02;;;;;;;9.93;5.03;;;;;;;;;;8421195;27;21234;-70
2021/06/28 20:03:16;;;;;;;13.82;5.63;;;;;;;;;;7792610;27;18764645;-71
2021/06/28 20:07:46;;;;;;;7.28;4.70;;;;;;;;;;8419822;27;21239;-70
2021/06/28 20:12:16;;;;;;;6.18;4.55;;;;;;;;;;8418953;27;21257;-70
2021/06/28 20:16:50;;;;;;;6.53;4.38;;;;;;;;;;8420280;27;21258;-71
2021/06/28 20:21:25;;;;;;;6.88;4.05;;;;;;;;;;8418750;27;20816;-70
2021/06/28 20:25:57;;;;;;;5.75;4.63;;;;;;;;;;8407322;27;21027;-71
2021/06/28 20:30:42;;;;;;;11.95;9.57;;;;;;;;;;8418958;27;20740;-70
2021/06/28 20:35:14;;;;;;;19.67;12.18;;;;;;;;;;8418674;27;21242;-71
2021/06/28 20:39:51;;;;;;;5.18;4.35;;;;;;;;;;8414787;27;20771;-71
2021/06/28 20:44:06;;;;;;;5.72;4.15;;;;;;;;;;7498736;27;27115435;-71
2021/06/28 20:48:39;;;;;;;11.00;6.45;;;;;;;;;;8421447;27;20783;-70
2021/06/28 20:53:09;;;;;;;6.18;4.10;;;;;;;;;;8395398;27;21048;-71
2021/06/28 20:57:23;;;;;;;5.35;4.13;;;;;;;;;;7922551;27;15054324;-71
2021/06/28 21:01:54;;;;;;;4.93;3.90;;;;;;;;;;8395246;27;21159;-70
2021/06/28 21:06:34;;;;;;;5.80;4.10;;;;;;;;;;8419368;27;21246;-70
2021/06/28 21:11:15;;;;;;;5.95;3.95;;;;;;;;;;8385816;27;20731;-70
2021/06/28 21:15:33;;;;;;;5.55;4.35;;;;;;;;;;7779922;27;17806963;-70
2021/06/28 21:19:48;;;;;;;7.28;4.13;;;;;;;;;;7448741;27;27138586;-71
2021/06/28 21:24:06;;;;;;;6.25;4.00;;;;;;;;;;7650919;27;21777275;-70
2021/06/28 21:28:46;;;;;;;9.25;4.40;;;;;;;;;;8360706;27;21238;-70
2021/06/28 21:33:20;;;;;;;6.45;4.43;;;;;;;;;;8418965;27;21243;-70
2021/06/28 21:37:55;;;;;;;8.82;3.88;;;;;;;;;;8385109;27;21139;-69
2021/06/28 21:42:29;;;;;;;5.45;3.78;;;;;;;;;;8421083;27;20724;-70
2021/06/28 21:47:00;;;;;;;7.68;4.15;;;;;;;;;;8396196;27;21254;-71
2021/06/28 21:51:34;;;;;;;6.03;3.80;;;;;;;;;;8419936;27;21285;-71
2021/06/28 21:55:49;;;;;;;9.45;5.00;;;;;;;;;;7685289;27;20814258;-70
2021/06/28 22:00:18;;;;;;;7.45;4.68;;;;;;;;;;7791688;27;18793944;-70
2021/06/28 22:04:52;;;;;;;7.30;4.82;;;;;;;;;;8419453;27;21336;-70
2021/06/28 22:09:31;;;;;;;7.25;4.70;;;;;;;;;;8421239;27;21031;-71
2021/06/28 22:14:05;;;;;;;8.02;4.57;;;;;;;;;;8385649;27;21026;-70
2021/06/28 22:18:37;;;;;;;7.40;4.20;;;;;;;;;;8398262;27;21066;-70
2021/06/28 22:23:12;;;;;;;4.97;3.95;;;;;;;;;;8420788;27;21040;-72
2021/06/28 22:27:45;;;;;;;9.15;4.30;;;;;;;;;;8420400;27;21264;-70
2021/06/28 22:32:18;;;;;;;8.70;4.25;;;;;;;;;;8421042;27;20724;-70
2021/06/28 22:36:52;;;;;;;7.38;4.00;;;;;;;;;;8397674;27;21040;-70
2021/06/28 22:41:06;;;;;;;4.97;3.87;;;;;;;;;;7284337;27;30187603;-70
2021/06/28 22:45:39;;;;;;;5.55;4.13;;;;;;;;;;8419866;27;21048;-71
2021/06/28 22:50:21;;;;;;;6.68;3.88;;;;;;;;;;8382214;27;21217;-72
2021/06/28 22:54:56;;;;;;;9.48;4.43;;;;;;;;;;8419224;27;20981;-70
2021/06/28 22:59:31;;;;;;;7.80;4.45;;;;;;;;;;8419097;27;21116;-71
2021/06/28 23:04:05;;;;;;;5.45;3.65;;;;;;;;;;8419184;27;20997;-70
2021/06/28 23:08:38;;;;;;;7.85;4.75;;;;;;;;;;8397228;27;20740;-70
2021/06/28 23:13:12;;;;;;;7.28;3.78;;;;;;;;;;8419601;27;21293;-70
2021/06/28 23:17:27;;;;;;;5.60;4.25;;;;;;;;;;7449056;27;27114783;-70
2021/06/28 23:21:41;;;;;;;7.70;3.75;;;;;;;;;;7791571;27;18812823;-70
2021/06/28 23:25:55;;;;;;;5.68;4.32;;;;;;;;;;7784481;27;18990824;-71
2021/06/28 23:30:10;;;;;;;5.75;3.97;;;;;;;;;;7796943;27;18636844;-70
2021/06/28 23:34:44;;;;;;;8.90;4.35;;;;;;;;;;8522119;27;24841;-70
2021/06/28 23:38:58;;;;;;;10.07;4.40;;;;;;;;;;7447634;27;27145618;-70
2021/06/28 23:43:37;;;;;;;6.65;4.20;;;;;;;;;;8360521;27;21230;-70
2021/06/28 23:48:11;;;;;;;6.70;4.07;;;;;;;;;;8385981;27;21043;-69
2021/06/28 23:52:51;;;;;;;9.45;4.45;;;;;;;;;;8360868;27;21237;-70
2021/06/28 23:57:25;;;;;;;4.50;3.50;;;;;;;;;;8419392;27;21176;-70
